Time;durP1;ratioP1;P1;durP2;ratioP2;P2;SDS_P1;SDS_P2;PMS_P1;PMS_P2;Temp;Humidity;BMP_temperature;BMP_pressure;BME280_temperature;BME280_humidity;BME280_pressure;Samples;Min_cycle;Max_cycle;Signal;HPM_P1;HPM_P2
2020/12/08 03:47:40;;;;;;;52.72;28.10;;;8.00;86.70;;;;;;4924656;29;20052;-83
2020/12/08 03:50:05;;;;;;;52.70;28.80;;;8.10;86.10;;;;;;4912716;29;20068;-83
2020/12/08 03:52:31;;;;;;;48.88;26.40;;;8.00;86.20;;;;;;4911318;29;20043;-83
2020/12/08 03:54:57;;;;;;;48.63;27.33;;;8.10;85.90;;;;;;4928656;29;20034;-83
2020/12/08 03:57:22;;;;;;;54.13;29.10;;;8.10;85.90;;;;;;4928661;29;20087;-82
2020/12/08 03:59:48;;;;;;;48.67;28.67;;;8.20;85.50;;;;;;4928594;29;20058;-82
2020/12/08 04:02:15;;;;;;;48.65;28.30;;;8.20;85.40;;;;;;4927313;29;20025;-83
2020/12/08 04:04:40;;;;;;;;;;;8.10;85.60;;;;;;4928445;29;20308;-83
2020/12/08 04:07:06;;;;;;;53.47;27.60;;;8.20;85.30;;;;;;4927207;29;19910;-83
2020/12/08 04:09:32;;;;;;;51.85;27.38;;;8.10;85.40;;;;;;4911012;29;20249;-82
2020/12/08 04:11:57;;;;;;;55.58;28.55;;;8.10;85.70;;;;;;4927943;29;20024;-82
2020/12/08 04:14:23;;;;;;;49.70;27.40;;;8.20;85.20;;;;;;4926939;29;20087;-82
2020/12/08 04:16:49;;;;;;;50.90;27.80;;;8.30;84.80;;;;;;4926479;29;20302;-82
2020/12/08 04:19:16;;;;;;;45.85;26.25;;;8.30;85.10;;;;;;4911402;29;20024;-82
2020/12/08 04:21:42;;;;;;;53.70;26.63;;;8.20;84.90;;;;;;4930500;29;20047;-83
2020/12/08 04:24:07;;;;;;;46.75;26.08;;;8.10;85.20;;;;;;4915281;29;20020;-82
2020/12/08 04:26:33;;;;;;;50.80;26.83;;;8.20;85.10;;;;;;4931912;29;20055;-82
2020/12/08 04:29:00;;;;;;;50.72;27.75;;;8.30;84.80;;;;;;4930434;29;20024;-82
2020/12/08 04:31:27;;;;;;;52.30;27.90;;;8.20;85.20;;;;;;4914247;29;20024;-82
2020/12/08 04:33:53;;;;;;;48.08;25.80;;;8.20;85.00;;;;;;4930235;29;20065;-83
2020/12/08 04:36:20;;;;;;;50.03;26.23;;;8.20;84.80;;;;;;4929894;29;20263;-82
2020/12/08 04:38:46;;;;;;;48.72;26.02;;;8.20;85.10;;;;;;4913753;29;20330;-83
2020/12/08 04:41:19;;;;;;;48.72;25.27;;;8.30;84.90;;;;;;4930619;29;20349;-83
2020/12/08 04:43:44;;;;;;;49.45;25.67;;;8.20;85.20;;;;;;4931620;29;20155;-83
2020/12/08 04:46:11;;;;;;;49.08;26.58;;;8.10;85.00;;;;;;4921680;29;20146;-83
2020/12/08 04:48:37;;;;;;;46.13;25.95;;;8.20;84.80;;;;;;4910954;29;20103;-83
2020/12/08 04:51:04;;;;;;;49.65;26.38;;;8.30;84.60;;;;;;4895160;29;20343;-82
2020/12/08 04:53:31;;;;;;;44.13;24.98;;;8.30;84.60;;;;;;4895064;29;20027;-83
2020/12/08 04:55:57;;;;;;;49.33;25.97;;;8.20;84.30;;;;;;4911896;29;20025;-83
2020/12/08 04:58:24;;;;;;;47.53;25.65;;;8.40;84.40;;;;;;4911987;29;20263;-83
2020/12/08 05:00:49;;;;;;;47.28;25.02;;;8.40;84.30;;;;;;4904786;29;20028;-83
2020/12/08 05:03:25;;;;;;;39.45;23.17;;;8.40;84.00;;;;;;4892998;29;20087;-82
2020/12/08 05:05:51;;;;;;;45.55;24.42;;;8.40;84.20;;;;;;4876863;29;20036;-83
2020/12/08 05:08:17;;;;;;;48.57;24.90;;;8.50;83.70;;;;;;4876268;29;20021;-83
2020/12/08 05:10:44;;;;;;;45.13;24.73;;;8.30;84.00;;;;;;4893364;29;20033;-83
2020/12/08 05:13:22;;;;;;;46.07;25.20;;;8.50;83.70;;;;;;4875950;29;20257;-82
2020/12/08 05:16:05;;;;;;;41.53;24.00;;;8.30;83.80;;;;;;4893125;29;20324;-82
2020/12/08 05:18:36;;;;;;;43.40;23.98;;;8.20;84.60;;;;;;4911337;29;20017;-82
2020/12/08 05:21:11;;;;;;;47.75;25.33;;;8.10;84.60;;;;;;4894591;29;20020;-82
2020/12/08 05:23:46;;;;;;;44.25;23.20;;;8.20;84.50;;;;;;4893860;29;20072;-82
2020/12/08 05:26:13;;;;;;;45.40;25.13;;;8.20;84.70;;;;;;4910800;29;20024;-82
2020/12/08 05:28:39;;;;;;;47.47;24.52;;;8.20;84.80;;;;;;4894291;29;20055;-83
2020/12/08 05:31:05;;;;;;;50.88;27.63;;;8.00;85.30;;;;;;4909712;29;20024;-83
2020/12/08 05:33:31;;;;;;;49.63;26.33;;;8.00;85.80;;;;;;4892827;29;20044;-83
2020/12/08 05:35:59;;;;;;;45.67;24.27;;;8.00;85.60;;;;;;4893954;29;20351;-83
2020/12/08 05:38:28;;;;;;;;;;;8.00;85.60;;;;;;4894127;29;20025;-83
2020/12/08 05:40:55;;;;;;;50.38;26.17;;;8.10;85.60;;;;;;4894180;29;19904;-83
2020/12/08 05:43:21;;;;;;;53.10;25.30;;;8.10;85.70;;;;;;4910674;29;20095;-83
2020/12/08 05:45:49;;;;;;;49.20;26.20;;;8.30;85.20;;;;;;4893655;29;20048;-83
2020/12/08 05:48:21;;;;;;;40.97;24.02;;;8.20;84.90;;;;;;4910784;29;20025;-83
2020/12/08 05:50:47;;;;;;;52.28;27.70;;;8.20;85.00;;;;;;4910605;29;20068;-83
2020/12/08 05:53:16;;;;;;;52.22;28.08;;;8.10;85.20;;;;;;4894047;29;20029;-82
2020/12/08 05:55:42;;;;;;;56.35;28.17;;;8.10;85.50;;;;;;4894060;29;20013;-83
2020/12/08 05:58:10;;;;;;;52.35;28.40;;;8.20;85.30;;;;;;4910548;29;20051;-83
2020/12/08 06:00:39;;;;;;;55.08;28.42;;;8.30;84.80;;;;;;4893549;29;20123;-82
2020/12/08 06:03:16;;;;;;;55.25;28.67;;;8.30;84.80;;;;;;4893938;29;20221;-83
2020/12/08 06:05:48;;;;;;;51.85;26.55;;;8.20;85.00;;;;;;4910906;29;20052;-83
2020/12/08 06:08:19;;;;;;;46.17;25.52;;;8.20;84.70;;;;;;4894351;29;20107;-83
2020/12/08 06:10:47;;;;;;;52.85;27.17;;;8.10;85.10;;;;;;4910811;29;20080;-82
2020/12/08 06:13:48;;;;;;;44.92;25.73;;;8.20;85.10;;;;;;4910447;29;20032;-82
2020/12/08 06:16:19;;;;;;;48.08;24.38;;;8.40;84.70;;;;;;4836502;29;20285;-83
2020/12/08 06:18:46;;;;;;;48.53;26.55;;;8.40;84.00;;;;;;4852591;29;20109;-83
2020/12/08 06:21:22;;;;;;;50.83;26.98;;;8.40;83.90;;;;;;4853102;29;20022;-83
2020/12/08 06:23:50;;;;;;;50.33;26.02;;;8.30;83.90;;;;;;4837731;29;20042;-83
2020/12/08 06:26:28;;;;;;;45.30;24.08;;;8.30;84.60;;;;;;4852870;29;20037;-82
2020/12/08 06:28:55;;;;;;;55.47;26.50;;;8.10;84.80;;;;;;4820229;29;20769;-82
2020/12/08 06:31:21;;;;;;;53.88;26.13;;;8.10;85.20;;;;;;4834832;29;20030;-82
2020/12/08 06:33:56;;;;;;;52.00;27.50;;;8.20;85.20;;;;;;4835352;29;20334;-83
2020/12/08 06:36:27;;;;;;;54.08;27.35;;;8.20;84.90;;;;;;4834753;29;20052;-82
2020/12/08 06:39:00;;;;;;;52.92;26.63;;;8.30;84.90;;;;;;4818313;29;20034;-81
2020/12/08 06:41:29;;;;;;;61.13;28.23;;;8.30;84.60;;;;;;4833942;29;20344;-82
2020/12/08 06:43:55;;;;;;;51.17;26.77;;;8.20;85.00;;;;;;4834400;29;20410;-82
2020/12/08 06:46:21;;;;;;;56.08;25.80;;;8.20;85.00;;;;;;4838121;29;20390;-82
2020/12/08 06:49:04;;;;;;;56.78;29.25;;;8.10;85.50;;;;;;4836604;29;20074;-83
2020/12/08 06:51:31;;;;;;;55.47;27.13;;;8.10;85.70;;;;;;4867631;29;20240;-83
2020/12/08 06:53:57;;;;;;;55.20;27.10;;;8.20;85.10;;;;;;4890990;29;20089;-83
2020/12/08 06:56:33;;;;;;;63.75;29.10;;;8.30;84.80;;;;;;4891272;29;20375;-83
2020/12/08 06:58:59;;;;;;;51.28;27.33;;;8.20;85.50;;;;;;4890835;29;20024;-83
2020/12/08 07:01:25;;;;;;;59.35;28.42;;;8.20;85.00;;;;;;4891184;29;20362;-83
2020/12/08 07:03:53;;;;;;;54.78;26.80;;;8.30;85.10;;;;;;4891639;29;20029;-83
2020/12/08 07:06:19;;;;;;;60.88;28.83;;;8.30;84.80;;;;;;4874353;29;20028;-83
2020/12/08 07:08:50;;;;;;;53.90;27.85;;;8.40;84.40;;;;;;4890139;29;20041;-84
2020/12/08 07:11:23;;;;;;;54.58;28.15;;;8.30;84.50;;;;;;4891545;29;20063;-83
2020/12/08 07:13:59;;;;;;;52.05;26.58;;;8.20;84.60;;;;;;4874322;29;20017;-82
2020/12/08 07:16:27;;;;;;;55.47;28.60;;;8.30;84.70;;;;;;4895744;29;20244;-82
2020/12/08 07:18:56;;;;;;;54.38;26.85;;;8.30;84.40;;;;;;4908279;29;20025;-82
2020/12/08 07:21:23;;;;;;;59.38;29.23;;;8.10;85.00;;;;;;4909320;29;20020;-83
2020/12/08 07:23:56;;;;;;;52.90;27.75;;;7.90;85.90;;;;;;4909077;29;20027;-82
2020/12/08 07:26:29;;;;;;;52.13;25.63;;;8.00;85.90;;;;;;4893047;29;20257;-82
2020/12/08 07:28:57;;;;;;;56.00;26.73;;;8.00;85.60;;;;;;4874084;29;20033;-83
2020/12/08 07:31:25;;;;;;;54.28;28.08;;;7.90;85.80;;;;;;4889152;29;20036;-83
2020/12/08 07:33:51;;;;;;;55.67;26.63;;;7.90;86.30;;;;;;4874275;29;20312;-83
2020/12/08 07:36:32;;;;;;;58.22;26.60;;;7.90;86.30;;;;;;4898145;29;20147;-82
2020/12/08 07:39:00;;;;;;;48.25;25.23;;;7.90;86.10;;;;;;4899901;29;20347;-83
2020/12/08 07:41:28;;;;;;;49.92;25.50;;;8.00;85.80;;;;;;4897472;29;20047;-83
2020/12/08 07:43:55;;;;;;;49.75;23.55;;;7.90;85.80;;;;;;4867991;29;20025;-82
2020/12/08 07:46:25;;;;;;;45.35;20.80;;;8.00;85.70;;;;;;4883515;29;20053;-83
2020/12/08 07:49:00;;;;;;;42.30;22.45;;;7.90;85.30;;;;;;4881598;29;20052;-84
2020/12/08 07:51:27;;;;;;;46.17;21.83;;;7.90;85.30;;;;;;4901915;29;20040;-82
2020/12/08 07:53:53;;;;;;;47.42;23.42;;;7.90;85.40;;;;;;4882664;29;20032;-83
2020/12/08 07:56:30;;;;;;;41.80;22.73;;;8.10;85.20;;;;;;4880069;29;20040;-83
2020/12/08 07:58:56;;;;;;;46.38;22.48;;;8.10;85.00;;;;;;4889900;29;20030;-83
2020/12/08 08:01:22;;;;;;;51.72;24.65;;;8.10;84.60;;;;;;4887437;29;20414;-83
2020/12/08 08:03:48;;;;;;;48.90;25.30;;;8.00;84.70;;;;;;4905954;29;20047;-82
2020/12/08 08:06:19;;;;;;;54.53;26.63;;;8.10;85.10;;;;;;4910648;29;20327;-82
2020/12/08 08:08:46;;;;;;;56.00;28.15;;;8.00;85.40;;;;;;4895169;29;20080;-83
2020/12/08 08:11:12;;;;;;;57.72;28.15;;;8.20;85.30;;;;;;4894878;29;20034;-83
2020/12/08 08:13:38;;;;;;;54.10;26.80;;;8.20;85.50;;;;;;4894926;29;20040;-83
2020/12/08 08:16:04;;;;;;;59.05;28.65;;;8.20;85.60;;;;;;4911525;29;20316;-83
2020/12/08 08:18:32;;;;;;;60.42;28.90;;;8.30;85.30;;;;;;4903416;29;20092;-83
2020/12/08 08:20:59;;;;;;;58.17;29.40;;;8.20;85.60;;;;;;4887260;29;20080;-82
2020/12/08 08:23:25;;;;;;;52.30;27.50;;;8.30;85.10;;;;;;4884472;29;20132;-82
2020/12/08 08:25:51;;;;;;;53.60;27.77;;;8.20;85.40;;;;;;4886913;29;20107;-83
2020/12/08 08:28:17;;;;;;;58.30;29.48;;;8.20;85.50;;;;;;4886855;29;20048;-82
2020/12/08 08:30:43;;;;;;;58.75;29.40;;;8.10;85.70;;;;;;4891007;29;20028;-82
2020/12/08 08:33:08;;;;;;;69.00;28.65;;;8.10;85.90;;;;;;4900204;29;20031;-82
2020/12/08 08:35:34;;;;;;;60.67;28.70;;;8.00;86.30;;;;;;4891398;29;20338;-83
2020/12/08 08:38:00;;;;;;;57.25;29.15;;;8.10;86.00;;;;;;4891999;29;20091;-83
2020/12/08 08:40:26;;;;;;;55.15;28.60;;;7.90;87.10;;;;;;4905186;29;20047;-83
2020/12/08 08:42:55;;;;;;;60.40;29.30;;;8.00;86.70;;;;;;4889689;29;20043;-83
2020/12/08 08:45:21;;;;;;;57.60;30.23;;;8.10;86.10;;;;;;4899324;29;20028;-83
2020/12/08 08:47:47;;;;;;;61.70;29.88;;;8.00;86.60;;;;;;4904754;29;20088;-83
2020/12/08 08:50:13;;;;;;;66.70;32.33;;;8.10;86.50;;;;;;4885194;29;20328;-82
2020/12/08 08:52:39;;;;;;;57.37;28.67;;;8.00;86.70;;;;;;4885017;29;20025;-82
2020/12/08 08:55:05;;;;;;;60.50;30.60;;;8.00;86.30;;;;;;4886823;29;20284;-83
2020/12/08 08:57:31;;;;;;;62.67;31.25;;;7.90;86.90;;;;;;4902872;29;20201;-83
2020/12/08 08:59:56;;;;;;;56.78;28.95;;;8.00;87.00;;;;;;4904590;29;20041;-83
2020/12/08 09:43:14;;;;;;;61.50;29.08;;;6.10;94.70;;;;;;5085038;28;20891;-84
2020/12/08 09:45:40;;;;;;;59.15;30.20;;;6.70;94.40;;;;;;5086388;28;20028;-85
2020/12/08 09:48:05;;;;;;;56.78;29.65;;;7.30;92.50;;;;;;5084212;28;20037;-84
2020/12/08 09:50:31;;;;;;;55.60;28.02;;;7.70;90.90;;;;;;5093101;28;20025;-84
2020/12/08 09:52:57;;;;;;;53.28;28.67;;;7.90;90.00;;;;;;5092386;28;20077;-83
2020/12/08 09:55:23;;;;;;;57.40;27.60;;;8.00;88.50;;;;;;5081096;28;20070;-83
2020/12/08 09:57:48;;;;;;;51.22;27.00;;;8.10;88.80;;;;;;5085946;28;20017;-84
2020/12/08 10:00:14;;;;;;;43.60;24.02;;;8.30;87.50;;;;;;5083985;28;20071;-83
2020/12/08 10:02:40;;;;;;;43.58;24.52;;;8.40;86.20;;;;;;5094382;28;20035;-83
2020/12/08 10:05:06;;;;;;;41.65;23.63;;;8.50;85.90;;;;;;5084680;28;20023;-86
2020/12/08 10:07:31;;;;;;;42.65;22.60;;;8.40;86.00;;;;;;5068149;28;20036;-84
2020/12/08 10:09:57;;;;;;;44.30;24.45;;;8.50;85.60;;;;;;5089746;28;20023;-83
2020/12/08 10:12:22;;;;;;;46.03;23.88;;;8.60;85.20;;;;;;5083090;28;20033;-83
2020/12/08 10:14:48;;;;;;;50.28;25.27;;;8.60;84.90;;;;;;5083516;28;20102;-83
2020/12/08 10:17:15;;;;;;;55.92;28.60;;;8.50;85.00;;;;;;5084913;28;20036;-83
2020/12/08 10:19:44;;;;;;;51.20;26.98;;;8.40;86.00;;;;;;5089527;28;20023;-83
2020/12/08 10:22:12;;;;;;;56.83;29.15;;;8.50;86.20;;;;;;5093962;28;20273;-83
2020/12/08 10:24:38;;;;;;;60.33;29.42;;;8.30;86.70;;;;;;5101709;28;20044;-84
2020/12/08 10:27:05;;;;;;;56.92;28.55;;;8.50;86.50;;;;;;5068177;28;20017;-83
2020/12/08 10:29:31;;;;;;;61.00;28.70;;;8.60;86.40;;;;;;5063087;28;20320;-84
2020/12/08 10:31:56;;;;;;;56.70;30.00;;;8.50;86.50;;;;;;5061178;28;20033;-84
2020/12/08 10:34:22;;;;;;;65.68;31.90;;;8.40;87.20;;;;;;5060860;28;20064;-84
2020/12/08 10:36:48;;;;;;;73.70;32.22;;;8.40;87.40;;;;;;5062633;28;20021;-84
2020/12/08 10:39:14;;;;;;;69.47;34.50;;;8.50;87.50;;;;;;5061483;28;20221;-84
2020/12/08 10:41:41;;;;;;;69.63;34.67;;;8.20;88.20;;;;;;5077032;28;20350;-84
2020/12/08 10:44:06;;;;;;;71.53;33.95;;;8.30;88.40;;;;;;5078914;28;20024;-83
2020/12/08 10:46:36;;;;;;;71.45;32.70;;;8.30;88.10;;;;;;5077569;28;20028;-84
2020/12/08 10:49:07;;;;;;;66.75;33.47;;;8.50;87.90;;;;;;5080488;28;20020;-83
2020/12/08 10:51:32;;;;;;;67.22;31.77;;;8.50;87.90;;;;;;5079036;28;20016;-84
2020/12/08 10:53:58;;;;;;;69.10;34.08;;;8.50;87.70;;;;;;5071698;28;20418;-83
2020/12/08 10:56:24;;;;;;;68.78;32.42;;;8.80;87.20;;;;;;5068413;28;20044;-83
2020/12/08 10:58:52;;;;;;;74.38;33.33;;;8.70;86.10;;;;;;5068442;28;20044;-84
2020/12/08 11:01:19;;;;;;;67.53;32.20;;;8.70;86.60;;;;;;5067483;28;20036;-84
2020/12/08 11:03:45;;;;;;;66.03;33.08;;;8.60;86.30;;;;;;5067401;28;20049;-84
2020/12/08 11:06:10;;;;;;;66.40;32.15;;;8.70;86.20;;;;;;5067562;28;20017;-84
2020/12/08 11:08:36;;;;;;;67.53;31.45;;;8.60;86.90;;;;;;5064914;28;20034;-84
2020/12/08 11:11:02;;;;;;;69.88;32.08;;;8.60;86.90;;;;;;5062683;28;20308;-83
2020/12/08 11:13:27;;;;;;;70.88;33.08;;;8.50;87.10;;;;;;5065716;28;20088;-83
2020/12/08 11:15:53;;;;;;;66.72;32.80;;;8.60;87.00;;;;;;5072501;28;20028;-84
2020/12/08 11:18:19;;;;;;;69.45;32.53;;;8.50;87.20;;;;;;5072840;28;20021;-84
2020/12/08 11:20:44;;;;;;;70.18;33.92;;;8.60;87.20;;;;;;5076433;28;20087;-83
2020/12/08 11:23:10;;;;;;;67.43;32.42;;;8.70;86.70;;;;;;5070152;28;20084;-84
2020/12/08 11:25:35;;;;;;;69.25;32.10;;;8.70;86.30;;;;;;5069698;28;20020;-84
2020/12/08 11:28:03;;;;;;;69.75;35.25;;;8.80;86.50;;;;;;5066585;28;20364;-83
2020/12/08 11:30:29;;;;;;;72.68;34.65;;;8.90;86.40;;;;;;5075386;28;20107;-84
2020/12/08 11:32:55;;;;;;;69.20;34.90;;;8.90;86.00;;;;;;5075669;28;20521;-83
2020/12/08 11:35:21;;;;;;;68.90;32.88;;;8.90;85.60;;;;;;5075004;28;20070;-83
2020/12/08 11:37:46;;;;;;;75.00;37.03;;;8.80;86.00;;;;;;5072851;28;20102;-83
2020/12/08 11:40:12;;;;;;;75.10;35.00;;;8.80;86.00;;;;;;5067313;28;20044;-83
2020/12/08 11:42:37;;;;;;;72.13;34.17;;;8.60;87.60;;;;;;5066451;28;20053;-83
2020/12/08 11:45:04;;;;;;;75.47;36.97;;;8.50;87.50;;;;;;5075785;28;20025;-84
2020/12/08 11:47:29;;;;;;;71.40;34.93;;;8.60;88.10;;;;;;5060072;28;20084;-84
2020/12/08 11:49:55;;;;;;;83.85;36.72;;;8.80;86.80;;;;;;5071801;28;20471;-84
2020/12/08 11:52:21;;;;;;;77.75;36.47;;;8.60;86.70;;;;;;5071430;28;20028;-84
2020/12/08 11:54:46;;;;;;;73.70;35.55;;;8.50;87.20;;;;;;5075673;28;20036;-82
2020/12/08 11:57:12;;;;;;;76.03;36.28;;;8.60;87.40;;;;;;5075613;28;20031;-83
2020/12/08 11:59:37;;;;;;;74.60;36.17;;;8.50;87.50;;;;;;5076424;28;20060;-83
2020/12/08 12:02:03;;;;;;;76.18;35.72;;;8.70;87.20;;;;;;5068452;28;20027;-83
2020/12/08 12:04:29;;;;;;;69.72;34.42;;;8.70;86.60;;;;;;5065097;28;20021;-83
2020/12/08 12:06:54;;;;;;;71.18;33.72;;;8.70;86.60;;;;;;5069195;28;20186;-83
2020/12/08 12:09:20;;;;;;;72.32;31.63;;;8.60;86.30;;;;;;5071483;28;20267;-83
2020/12/08 12:11:46;;;;;;;66.43;34.47;;;8.70;85.90;;;;;;5069186;28;20024;-83
2020/12/08 12:14:11;;;;;;;57.65;32.75;;;8.70;85.60;;;;;;5067854;28;20020;-82
2020/12/08 12:16:37;;;;;;;57.83;31.95;;;8.60;85.90;;;;;;5073745;28;20055;-83
2020/12/08 12:19:03;;;;;;;54.47;30.73;;;8.70;85.40;;;;;;5075614;28;20066;-83
2020/12/08 12:21:29;;;;;;;52.17;29.35;;;8.40;85.80;;;;;;5073276;28;20016;-82
2020/12/08 12:23:57;;;;;;;47.40;26.85;;;8.40;86.10;;;;;;5076506;28;20261;-83
2020/12/08 12:26:24;;;;;;;43.88;26.67;;;8.50;85.50;;;;;;5064465;28;20036;-83
2020/12/08 12:28:52;;;;;;;45.40;25.63;;;8.50;85.00;;;;;;5062872;28;20028;-83
2020/12/08 12:31:17;;;;;;;46.83;27.17;;;8.60;84.50;;;;;;5064890;28;20017;-83
2020/12/08 12:33:43;;;;;;;48.15;28.17;;;8.50;85.00;;;;;;5074606;28;20123;-83
2020/12/08 12:36:09;;;;;;;45.00;27.65;;;8.40;85.10;;;;;;5071146;28;20029;-83
2020/12/08 12:38:35;;;;;;;54.42;31.25;;;8.60;84.70;;;;;;5074891;28;20024;-82
2020/12/08 12:41:00;;;;;;;55.72;31.48;;;8.70;84.10;;;;;;5072243;28;20032;-83
2020/12/08 12:43:26;;;;;;;51.03;29.42;;;8.60;84.20;;;;;;5070584;28;20037;-83
2020/12/08 12:45:52;;;;;;;48.78;29.13;;;8.50;84.60;;;;;;5068642;28;20021;-83
2020/12/08 12:48:17;;;;;;;50.10;29.35;;;8.30;85.40;;;;;;5067928;28;20082;-83
2020/12/08 12:50:43;;;;;;;42.70;27.73;;;8.40;85.10;;;;;;5072956;28;20013;-83
2020/12/08 12:53:10;;;;;;;41.95;26.67;;;8.40;84.50;;;;;;5068006;28;20028;-83
2020/12/08 12:55:35;;;;;;;52.25;29.25;;;8.50;84.00;;;;;;5074559;28;20044;-83
2020/12/08 12:58:02;;;;;;;49.08;28.45;;;8.70;84.20;;;;;;5069499;28;20031;-83
2020/12/08 13:00:27;;;;;;;53.28;30.05;;;8.70;83.40;;;;;;5071367;28;20016;-83
2020/12/08 13:02:53;;;;;;;50.60;28.52;;;8.70;83.60;;;;;;5072187;28;20021;-83
2020/12/08 13:05:19;;;;;;;47.85;29.02;;;8.60;83.70;;;;;;5074725;28;20028;-82
2020/12/08 13:07:44;;;;;;;43.58;27.30;;;8.80;83.70;;;;;;5073005;28;20025;-82
2020/12/08 13:10:10;;;;;;;48.00;29.20;;;8.80;82.70;;;;;;5068882;28;20024;-84
2020/12/08 13:12:38;;;;;;;43.88;27.63;;;8.90;82.80;;;;;;5070439;28;20060;-83
2020/12/08 13:15:04;;;;;;;42.05;26.60;;;8.80;82.30;;;;;;5070753;28;20020;-84
2020/12/08 13:17:30;;;;;;;47.88;29.13;;;8.80;82.70;;;;;;5064912;28;20028;-83
2020/12/08 13:19:55;;;;;;;42.38;26.95;;;9.00;82.20;;;;;;5065996;28;20025;-83
2020/12/08 13:22:21;;;;;;;38.15;21.90;;;8.90;81.50;;;;;;5070392;28;20069;-84
2020/12/08 13:24:46;;;;;;;33.88;22.83;;;8.60;81.20;;;;;;5069035;28;20039;-82
2020/12/08 13:27:13;;;;;;;35.22;21.42;;;8.50;81.30;;;;;;5066934;28;20032;-84
2020/12/08 13:29:39;;;;;;;31.67;21.35;;;8.50;81.60;;;;;;5074459;28;20024;-84
2020/12/08 13:32:05;;;;;;;27.40;20.00;;;8.60;81.50;;;;;;5068450;28;20154;-82
2020/12/08 13:34:30;;;;;;;28.23;19.25;;;8.50;81.00;;;;;;5072755;28;20295;-83
2020/12/08 13:36:56;;;;;;;34.10;22.23;;;8.70;81.20;;;;;;5075422;28;20119;-84
2020/12/08 13:39:22;;;;;;;38.30;24.98;;;8.60;81.10;;;;;;5070517;28;20036;-84
2020/12/08 13:41:48;;;;;;;41.17;25.00;;;8.60;81.80;;;;;;5067974;28;20354;-83
2020/12/08 13:44:15;;;;;;;47.17;27.47;;;8.70;82.10;;;;;;5068952;28;20029;-84
2020/12/08 13:46:41;;;;;;;47.25;28.13;;;8.50;81.80;;;;;;5079040;28;20349;-84
2020/12/08 13:49:07;;;;;;;50.90;28.23;;;8.70;82.10;;;;;;5066592;28;20021;-84
2020/12/08 13:51:32;;;;;;;43.85;27.17;;;8.60;81.90;;;;;;5066436;28;20021;-83
2020/12/08 13:53:58;;;;;;;46.10;25.80;;;8.60;82.20;;;;;;5072677;28;20029;-83
2020/12/08 13:56:24;;;;;;;45.65;25.08;;;8.60;81.80;;;;;;5072225;28;20484;-84
2020/12/08 13:58:51;;;;;;;39.17;23.23;;;8.60;81.40;;;;;;5064823;28;20021;-83
2020/12/08 14:01:21;;;;;;;39.65;23.85;;;8.50;81.30;;;;;;5063585;28;20052;-84
2020/12/08 14:03:47;;;;;;;43.00;24.80;;;8.60;81.00;;;;;;5062663;28;20012;-83
2020/12/08 14:06:13;;;;;;;40.65;22.77;;;8.70;80.80;;;;;;5067691;28;20009;-83
2020/12/08 14:08:39;;;;;;;37.03;22.85;;;8.80;80.10;;;;;;5061432;28;20013;-84
2020/12/08 14:11:05;;;;;;;39.45;24.00;;;8.80;80.00;;;;;;5068003;28;20240;-83
2020/12/08 14:13:31;;;;;;;37.20;23.17;;;8.70;80.20;;;;;;5067328;28;20108;-83
2020/12/08 14:15:56;;;;;;;39.72;22.15;;;8.60;80.60;;;;;;5063017;28;20033;-84
2020/12/08 14:18:24;;;;;;;35.67;22.48;;;8.60;81.10;;;;;;5067490;28;20044;-83
2020/12/08 14:20:50;;;;;;;;;;;8.70;80.50;;;;;;5068273;28;20021;-84
2020/12/08 14:23:15;;;;;;;39.03;23.03;;;8.80;79.90;;;;;;5069723;28;19955;-84
2020/12/08 14:25:41;;;;;;;37.90;23.75;;;8.80;80.20;;;;;;5074095;28;20021;-83
2020/12/08 14:28:06;;;;;;;40.47;25.60;;;8.60;81.00;;;;;;5074215;28;20032;-83
2020/12/08 14:30:32;;;;;;;45.97;27.08;;;8.70;81.00;;;;;;5077437;28;20028;-84
2020/12/08 14:32:58;;;;;;;45.33;26.38;;;8.70;81.10;;;;;;5068099;28;20029;-83
2020/12/08 14:35:23;;;;;;;50.45;29.83;;;8.80;80.90;;;;;;5070629;28;20063;-83
2020/12/08 14:37:49;;;;;;;47.70;26.90;;;8.60;81.40;;;;;;5076275;28;20042;-84
2020/12/08 14:40:15;;;;;;;44.45;26.35;;;8.50;81.80;;;;;;5074716;28;20312;-82
2020/12/08 14:42:40;;;;;;;45.15;24.77;;;8.50;82.20;;;;;;5075189;28;20037;-83
2020/12/08 14:45:07;;;;;;;43.08;25.08;;;8.40;82.40;;;;;;5080360;28;20038;-83
2020/12/08 14:47:36;;;;;;;;;;;8.50;82.40;;;;;;5075891;28;20013;-83
2020/12/08 14:50:04;;;;;;;47.72;28.88;;;8.50;81.80;;;;;;5068675;28;19968;-83
2020/12/08 14:52:31;;;;;;;43.65;25.25;;;8.50;81.60;;;;;;5070163;28;20029;-83
2020/12/08 14:54:57;;;;;;;47.22;24.98;;;8.40;82.20;;;;;;5072611;28;20025;-83
2020/12/08 14:57:23;;;;;;;45.65;28.25;;;8.50;81.80;;;;;;5076668;28;20212;-84
2020/12/08 14:59:48;;;;;;;45.65;28.08;;;8.50;81.00;;;;;;5078428;28;20087;-84
2020/12/08 15:02:14;;;;;;;44.33;24.88;;;8.40;81.20;;;;;;5079329;28;20036;-84
2020/12/08 15:04:40;;;;;;;48.78;28.48;;;8.40;81.60;;;;;;5076600;28;20205;-83
2020/12/08 15:07:06;;;;;;;47.40;26.85;;;8.30;81.90;;;;;;5074911;28;20320;-83
2020/12/08 15:09:31;;;;;;;43.65;27.00;;;8.40;81.50;;;;;;5065771;28;20024;-84
2020/12/08 15:11:57;;;;;;;46.35;25.95;;;8.40;81.40;;;;;;5074014;28;20048;-83
2020/12/08 15:14:24;;;;;;;50.95;29.48;;;8.50;81.50;;;;;;5070722;28;20068;-83
2020/12/08 15:16:49;;;;;;;51.85;28.85;;;8.30;81.90;;;;;;5081398;28;20023;-83
2020/12/08 15:19:15;;;;;;;50.75;28.65;;;8.30;81.60;;;;;;5066792;28;20626;-84
2020/12/08 15:21:42;;;;;;;55.00;33.58;;;8.40;82.10;;;;;;5062849;28;20040;-84
2020/12/08 15:24:10;;;;;;;53.92;31.65;;;8.60;81.40;;;;;;5071873;28;20025;-84
2020/12/08 15:26:36;;;;;;;;;;;8.50;82.10;;;;;;5065683;28;20025;-85
2020/12/08 15:29:06;;;;;;;60.13;34.00;;;8.50;81.00;;;;;;5068280;28;19910;-84
2020/12/08 15:31:32;;;;;;;54.28;31.02;;;8.50;81.40;;;;;;5064856;28;20031;-84
2020/12/08 15:33:58;;;;;;;47.35;28.73;;;8.50;81.10;;;;;;5068123;28;20033;-84
2020/12/08 15:36:24;;;;;;;46.60;28.42;;;8.20;81.30;;;;;;5076794;28;20036;-85
2020/12/08 15:38:50;;;;;;;48.63;28.52;;;8.40;81.60;;;;;;5078854;28;20023;-85
2020/12/08 15:41:20;;;;;;;47.85;26.80;;;8.40;81.40;;;;;;5074723;28;20311;-84
2020/12/08 15:43:46;;;;;;;43.35;27.38;;;8.40;81.00;;;;;;5072706;28;20040;-84
2020/12/08 15:46:18;;;;;;;41.60;25.55;;;8.40;81.20;;;;;;5071432;28;20123;-85
2020/12/08 15:48:43;;;;;;;44.50;23.77;;;8.30;81.30;;;;;;5067468;28;20025;-85
2020/12/08 15:51:09;;;;;;;38.53;23.63;;;8.30;81.80;;;;;;5067519;28;20032;-83
2020/12/08 15:53:35;;;;;;;42.42;24.85;;;8.30;82.00;;;;;;5066293;28;20040;-84
2020/12/08 15:56:00;;;;;;;35.85;22.55;;;8.30;82.10;;;;;;5072935;28;20025;-83
2020/12/08 15:58:26;;;;;;;41.22;23.20;;;8.40;82.20;;;;;;5065102;28;20476;-83
2020/12/08 16:00:52;;;;;;;37.78;24.88;;;8.40;82.20;;;;;;5064013;28;20021;-84
2020/12/08 16:03:18;;;;;;;43.15;23.65;;;8.30;82.50;;;;;;5075252;28;20070;-84
2020/12/08 16:05:44;;;;;;;37.67;24.10;;;8.30;82.70;;;;;;5075565;28;20185;-84
2020/12/08 16:08:10;;;;;;;37.67;23.50;;;8.30;83.10;;;;;;5065026;28;20033;-84
2020/12/08 16:10:36;;;;;;;40.67;26.52;;;8.20;84.00;;;;;;5076738;28;20273;-83
2020/12/08 16:13:02;;;;;;;46.42;30.20;;;8.20;84.80;;;;;;5073865;28;20016;-83
2020/12/08 16:15:27;;;;;;;67.88;35.63;;;8.30;84.60;;;;;;5068121;28;20027;-85
2020/12/08 16:17:53;;;;;;;47.28;30.02;;;8.40;84.10;;;;;;5063301;28;20259;-84
2020/12/08 16:20:19;;;;;;;50.72;31.67;;;8.30;84.10;;;;;;5068658;28;20040;-85
2020/12/08 16:22:45;;;;;;;52.97;32.72;;;8.50;83.80;;;;;;5073277;28;20219;-84
2020/12/08 16:25:11;;;;;;;48.67;31.60;;;8.50;83.40;;;;;;5074481;28;20084;-84
2020/12/08 16:27:37;;;;;;;49.47;30.35;;;8.40;83.70;;;;;;5073584;28;20040;-84
2020/12/08 16:30:05;;;;;;;50.55;32.28;;;8.30;84.40;;;;;;5075240;28;20013;-84
2020/12/08 16:32:33;;;;;;;53.47;32.72;;;8.30;84.30;;;;;;5071553;28;20044;-84
2020/12/08 16:35:02;;;;;;;53.33;34.67;;;8.30;84.80;;;;;;5055240;28;20522;-84
2020/12/08 16:37:28;;;;;;;58.63;37.10;;;8.30;85.20;;;;;;5072134;28;20029;-84
2020/12/08 16:39:53;;;;;;;57.65;36.30;;;8.30;85.30;;;;;;5069281;28;20044;-83
2020/12/08 16:42:19;;;;;;;62.17;37.40;;;8.40;85.20;;;;;;5070948;28;20044;-85
2020/12/08 16:44:45;;;;;;;60.35;35.50;;;8.40;85.00;;;;;;5065883;28;20028;-84
2020/12/08 16:47:10;;;;;;;56.55;32.70;;;8.10;86.30;;;;;;5073795;28;20047;-84
2020/12/08 16:49:36;;;;;;;54.55;34.88;;;8.00;85.80;;;;;;5079679;28;20069;-84
2020/12/08 16:52:08;;;;;;;55.17;35.38;;;8.00;86.10;;;;;;5070948;28;20036;-84
2020/12/08 16:54:34;;;;;;;57.33;35.25;;;8.10;85.80;;;;;;5075566;28;20024;-84
2020/12/08 16:57:00;;;;;;;65.28;36.20;;;8.20;85.50;;;;;;5067171;28;20021;-84
2020/12/08 16:59:26;;;;;;;54.45;32.55;;;8.30;85.40;;;;;;5064777;28;20406;-84
2020/12/08 17:01:51;;;;;;;53.38;34.25;;;8.30;85.40;;;;;;5067839;28;20045;-84
2020/12/08 17:04:17;;;;;;;52.38;33.28;;;8.30;85.20;;;;;;5070414;28;20017;-84